Time;durP1;ratioP1;P1;durP2;ratioP2;P2;SDS_P1;SDS_P2;PMS_P1;PMS_P2;Temp;Humidity;BMP_temperature;BMP_pressure;BME280_temperature;BME280_humidity;BME280_pressure;Samples;Min_cycle;Max_cycle;Signal;HPM_P1;HPM_P2
2022/03/03 00:03:51;;;;;;;118.10;48.42;;;;;;;;;;10268524;28;20068;-56
2022/03/03 00:08:49;;;;;;;90.00;38.13;;;;;;;;;;10275205;28;20049;-56
2022/03/03 00:13:50;;;;;;;147.18;56.80;;;;;;;;;;10275081;28;20067;-54
2022/03/03 00:18:48;;;;;;;100.72;42.17;;;;;;;;;;10292034;28;20068;-56
2022/03/03 00:23:46;;;;;;;83.93;43.40;;;;;;;;;;10274507;28;20631;-56
2022/03/03 00:28:44;;;;;;;70.80;42.33;;;;;;;;;;10272646;28;20079;-55
2022/03/03 00:33:44;;;;;;;33.78;20.70;;;;;;;;;;10275045;28;20099;-56
2022/03/03 00:38:42;;;;;;;39.55;21.30;;;;;;;;;;10268366;28;20087;-56
2022/03/03 00:43:40;;;;;;;34.55;19.20;;;;;;;;;;10291187;28;20079;-56
2022/03/03 00:48:39;;;;;;;31.63;19.77;;;;;;;;;;10278582;28;20107;-56
2022/03/03 00:53:38;;;;;;;27.75;18.55;;;;;;;;;;10278043;28;20080;-53
2022/03/03 00:58:37;;;;;;;26.85;17.25;;;;;;;;;;10273764;28;20076;-54
2022/03/03 01:03:35;;;;;;;19.80;15.60;;;;;;;;;;10273659;28;20845;-52
2022/03/03 01:08:33;;;;;;;20.55;15.63;;;;;;;;;;10272967;28;20083;-54
2022/03/03 01:13:33;;;;;;;19.05;14.13;;;;;;;;;;10272789;28;20075;-56
2022/03/03 01:18:31;;;;;;;20.38;16.63;;;;;;;;;;10270149;28;20072;-54
2022/03/03 01:23:30;;;;;;;24.38;17.45;;;;;;;;;;10271862;28;20474;-57
2022/03/03 01:28:28;;;;;;;15.85;12.85;;;;;;;;;;10272146;28;20083;-54
2022/03/03 01:33:27;;;;;;;61.40;35.35;;;;;;;;;;10265066;28;20068;-55
2022/03/03 01:38:26;;;;;;;110.63;46.28;;;;;;;;;;10261055;28;20532;-54
2022/03/03 01:43:24;;;;;;;111.57;44.30;;;;;;;;;;10283117;28;20120;-53
2022/03/03 01:48:22;;;;;;;77.95;38.90;;;;;;;;;;10270509;28;20465;-53
2022/03/03 01:53:22;;;;;;;43.03;29.65;;;;;;;;;;10271275;28;20076;-55
2022/03/03 01:58:20;;;;;;;23.90;18.23;;;;;;;;;;10270965;28;20080;-56
2022/03/03 02:03:19;;;;;;;28.95;21.33;;;;;;;;;;10269257;28;20190;-52
2022/03/03 02:08:18;;;;;;;83.70;42.38;;;;;;;;;;10269110;28;20076;-52
2022/03/03 02:13:18;;;;;;;23.20;17.10;;;;;;;;;;10269111;28;20083;-55
2022/03/03 02:18:16;;;;;;;38.42;25.70;;;;;;;;;;10269330;28;20182;-50
2022/03/03 02:23:18;;;;;;;31.05;22.60;;;;;;;;;;10265610;28;20083;-56
2022/03/03 02:28:16;;;;;;;30.15;23.60;;;;;;;;;;10266026;28;20080;-55
2022/03/03 02:33:15;;;;;;;30.45;24.83;;;;;;;;;;10265860;28;20067;-56
2022/03/03 02:38:13;;;;;;;32.20;23.58;;;;;;;;;;10269260;28;20467;-58
2022/03/03 02:43:13;;;;;;;35.20;25.85;;;;;;;;;;10260861;28;20068;-56
2022/03/03 02:48:11;;;;;;;32.83;24.17;;;;;;;;;;10286652;28;20083;-53
2022/03/03 02:53:09;;;;;;;27.27;20.73;;;;;;;;;;10269063;28;20084;-57
2022/03/03 02:58:07;;;;;;;29.55;23.08;;;;;;;;;;10278630;28;20049;-54
2022/03/03 03:03:07;;;;;;;23.83;19.67;;;;;;;;;;10273647;28;20045;-55
2022/03/03 03:08:06;;;;;;;27.73;24.77;;;;;;;;;;10270725;28;20049;-57
2022/03/03 03:13:05;;;;;;;24.98;18.80;;;;;;;;;;10278998;28;20068;-56
2022/03/03 03:18:11;;;;;;;37.20;28.70;;;;;;;;;;10267562;28;20131;-56
2022/03/03 03:23:10;;;;;;;39.42;26.98;;;;;;;;;;10266158;28;20445;-51
2022/03/03 03:28:09;;;;;;;31.42;22.92;;;;;;;;;;10273730;28;20076;-56
2022/03/03 03:33:07;;;;;;;23.85;18.92;;;;;;;;;;10264876;28;20749;-58
2022/03/03 03:38:07;;;;;;;22.85;16.65;;;;;;;;;;10260290;28;20071;-55
2022/03/03 03:43:05;;;;;;;19.65;16.50;;;;;;;;;;10273991;28;20064;-55
2022/03/03 03:48:04;;;;;;;19.80;15.75;;;;;;;;;;10275265;28;20072;-52
2022/03/03 03:53:02;;;;;;;19.67;14.95;;;;;;;;;;10274780;28;20084;-53
2022/03/03 03:58:02;;;;;;;20.48;16.25;;;;;;;;;;10275597;28;20076;-55
2022/03/03 04:03:00;;;;;;;24.80;18.00;;;;;;;;;;10274479;28;20068;-57
2022/03/03 04:07:58;;;;;;;22.60;17.75;;;;;;;;;;10274816;28;20076;-56
2022/03/03 04:12:57;;;;;;;17.10;14.40;;;;;;;;;;10274904;28;20073;-54
2022/03/03 04:17:56;;;;;;;20.17;16.13;;;;;;;;;;10272903;28;20099;-55
2022/03/03 04:22:55;;;;;;;22.02;16.40;;;;;;;;;;10274115;28;20084;-55
2022/03/03 04:27:53;;;;;;;18.48;15.07;;;;;;;;;;10273507;28;20088;-57
2022/03/03 04:32:58;;;;;;;20.20;14.70;;;;;;;;;;10270336;28;20490;-57
2022/03/03 04:37:56;;;;;;;20.00;13.38;;;;;;;;;;10277968;28;20514;-58
2022/03/03 04:42:54;;;;;;;19.15;13.55;;;;;;;;;;10274920;28;20072;-56
2022/03/03 04:47:53;;;;;;;16.52;13.75;;;;;;;;;;10268947;28;20100;-56
2022/03/03 04:52:52;;;;;;;20.30;15.30;;;;;;;;;;10268613;28;20515;-56
2022/03/03 04:57:50;;;;;;;18.23;14.43;;;;;;;;;;10267753;28;20080;-57
2022/03/03 05:02:49;;;;;;;21.02;13.73;;;;;;;;;;10272243;28;20081;-56
2022/03/03 05:07:47;;;;;;;21.40;15.00;;;;;;;;;;10272528;28;20049;-55
2022/03/03 05:12:47;;;;;;;22.60;17.08;;;;;;;;;;10269007;28;20077;-56
2022/03/03 05:17:45;;;;;;;28.10;23.10;;;;;;;;;;10270783;28;20127;-56
2022/03/03 05:22:43;;;;;;;19.25;16.08;;;;;;;;;;10270720;28;20073;-56
2022/03/03 05:27:42;;;;;;;21.10;16.38;;;;;;;;;;10271827;28;20064;-54
2022/03/03 05:32:41;;;;;;;20.55;15.18;;;;;;;;;;10268105;28;20072;-56
2022/03/03 05:37:40;;;;;;;26.13;17.48;;;;;;;;;;10274184;28;20067;-55
2022/03/03 05:42:38;;;;;;;26.95;19.05;;;;;;;;;;10254359;28;20068;-54
2022/03/03 05:47:37;;;;;;;22.88;17.63;;;;;;;;;;10264092;28;20092;-55
2022/03/03 05:52:36;;;;;;;33.90;24.48;;;;;;;;;;10261666;28;20137;-55
2022/03/03 05:57:36;;;;;;;30.58;20.23;;;;;;;;;;10252442;28;20069;-53
2022/03/03 06:02:36;;;;;;;30.92;22.02;;;;;;;;;;10250689;28;20104;-55
2022/03/03 06:07:35;;;;;;;25.08;17.33;;;;;;;;;;10260222;28;20088;-54
2022/03/03 06:12:39;;;;;;;39.67;25.73;;;;;;;;;;10263821;28;20084;-55
2022/03/03 06:17:37;;;;;;;38.83;25.70;;;;;;;;;;10259719;28;20071;-55
2022/03/03 06:22:35;;;;;;;28.00;21.23;;;;;;;;;;10269688;28;20057;-55
2022/03/03 06:27:35;;;;;;;33.47;24.17;;;;;;;;;;10259012;28;20511;-53
2022/03/03 06:32:33;;;;;;;44.42;29.42;;;;;;;;;;10254039;28;20465;-54
2022/03/03 06:37:32;;;;;;;40.83;28.05;;;;;;;;;;10253685;28;20162;-53
2022/03/03 06:42:30;;;;;;;30.08;23.90;;;;;;;;;;10246342;28;20493;-52
2022/03/03 06:47:30;;;;;;;31.40;24.98;;;;;;;;;;10254315;28;20057;-53
2022/03/03 06:52:30;;;;;;;29.48;23.17;;;;;;;;;;10250536;28;20077;-53
2022/03/03 06:57:30;;;;;;;32.60;24.45;;;;;;;;;;10244895;28;20083;-53
2022/03/03 07:02:30;;;;;;;34.28;24.50;;;;;;;;;;10247290;28;20113;-57
2022/03/03 07:07:29;;;;;;;22.25;18.38;;;;;;;;;;10264376;28;20530;-56
2022/03/03 07:12:28;;;;;;;30.23;19.48;;;;;;;;;;10249807;28;20072;-53
2022/03/03 07:17:32;;;;;;;41.63;29.50;;;;;;;;;;10248419;28;20091;-55
2022/03/03 07:22:34;;;;;;;41.65;29.20;;;;;;;;;;10243641;28;20475;-54
2022/03/03 07:27:33;;;;;;;37.40;24.05;;;;;;;;;;10244598;28;20081;-56
2022/03/03 07:32:33;;;;;;;32.75;22.73;;;;;;;;;;10259377;28;20112;-55
2022/03/03 07:37:35;;;;;;;43.95;28.67;;;;;;;;;;10256530;28;20081;-56
2022/03/03 07:42:34;;;;;;;37.38;25.73;;;;;;;;;;10268025;28;20061;-56
2022/03/03 07:47:34;;;;;;;32.55;23.83;;;;;;;;;;10254818;28;20556;-56
2022/03/03 07:52:35;;;;;;;36.95;23.80;;;;;;;;;;10263434;28;20107;-55
2022/03/03 07:57:34;;;;;;;29.17;21.30;;;;;;;;;;10260731;28;20080;-57
2022/03/03 08:02:33;;;;;;;25.13;19.30;;;;;;;;;;10261903;28;20481;-54
2022/03/03 08:07:35;;;;;;;27.13;19.75;;;;;;;;;;10264215;28;20065;-52
2022/03/03 08:12:34;;;;;;;26.42;18.95;;;;;;;;;;10274836;28;20079;-55
2022/03/03 08:17:33;;;;;;;24.17;18.75;;;;;;;;;;10264871;28;20530;-54
2022/03/03 08:22:32;;;;;;;21.90;18.95;;;;;;;;;;10271081;28;20083;-56
2022/03/03 08:27:32;;;;;;;25.00;17.92;;;;;;;;;;10267719;28;20117;-54
2022/03/03 08:32:34;;;;;;;25.92;21.40;;;;;;;;;;10273187;28;20154;-54
2022/03/03 08:37:35;;;;;;;23.08;17.73;;;;;;;;;;10274527;28;20494;-55
2022/03/03 08:42:36;;;;;;;23.45;16.92;;;;;;;;;;10275136;28;20092;-55
2022/03/03 08:47:35;;;;;;;24.88;18.02;;;;;;;;;;10268616;28;20077;-52
2022/03/03 08:52:33;;;;;;;29.58;21.38;;;;;;;;;;10269582;28;20085;-55
2022/03/03 08:57:31;;;;;;;23.17;18.65;;;;;;;;;;10276000;28;20081;-57
2022/03/03 09:02:31;;;;;;;27.58;22.10;;;;;;;;;;10273116;28;20061;-57
2022/03/03 09:07:29;;;;;;;25.80;19.80;;;;;;;;;;10287388;28;20069;-52
2022/03/03 09:12:28;;;;;;;28.42;21.30;;;;;;;;;;10287505;28;20073;-56
2022/03/03 09:17:26;;;;;;;23.27;18.33;;;;;;;;;;10288082;28;20093;-55
2022/03/03 09:22:26;;;;;;;28.42;20.85;;;;;;;;;;10272465;28;20072;-55
2022/03/03 09:27:24;;;;;;;39.05;25.25;;;;;;;;;;10287046;28;20128;-54
2022/03/03 09:32:22;;;;;;;28.67;20.45;;;;;;;;;;10273312;28;20087;-57
2022/03/03 09:37:21;;;;;;;23.85;19.15;;;;;;;;;;10285471;28;20079;-56
2022/03/03 09:42:21;;;;;;;26.35;23.10;;;;;;;;;;10272387;28;20084;-58
2022/03/03 09:47:19;;;;;;;26.02;19.60;;;;;;;;;;10272393;28;20071;-57
2022/03/03 09:52:18;;;;;;;30.13;19.95;;;;;;;;;;10273206;28;20155;-56
2022/03/03 09:57:17;;;;;;;23.73;18.50;;;;;;;;;;10270020;28;20533;-57
2022/03/03 10:02:16;;;;;;;105.28;78.65;;;;;;;;;;10276334;28;20500;-56
2022/03/03 10:07:15;;;;;;;23.90;19.98;;;;;;;;;;10275699;28;20052;-54
2022/03/03 10:12:13;;;;;;;41.45;30.35;;;;;;;;;;10275522;28;20084;-56
2022/03/03 10:17:11;;;;;;;23.75;20.08;;;;;;;;;;10269508;28;20073;-57
2022/03/03 10:22:14;;;;;;;31.42;21.55;;;;;;;;;;10283810;28;20103;-56
2022/03/03 10:27:12;;;;;;;26.55;21.35;;;;;;;;;;10283634;28;20084;-58
2022/03/03 10:32:22;;;;;;;39.95;26.45;;;;;;;;;;10270494;28;20151;-56
2022/03/03 10:37:23;;;;;;;25.65;22.95;;;;;;;;;;10276624;28;20537;-55
2022/03/03 10:42:22;;;;;;;21.52;16.83;;;;;;;;;;10274478;28;20076;-58
2022/03/03 10:47:21;;;;;;;18.65;15.13;;;;;;;;;;10267531;28;20715;-57
2022/03/03 10:52:20;;;;;;;20.67;15.98;;;;;;;;;;10270201;28;20080;-57
2022/03/03 10:57:40;;;;;;;24.13;18.35;;;;;;;;;;10268122;28;20061;-56
2022/03/03 11:02:38;;;;;;;25.98;20.20;;;;;;;;;;10260444;28;20065;-57
2022/03/03 11:07:38;;;;;;;24.02;17.17;;;;;;;;;;10269108;28;20562;-56
2022/03/03 11:12:36;;;;;;;26.83;19.33;;;;;;;;;;10258279;28;20077;-56
2022/03/03 11:17:36;;;;;;;56.42;29.95;;;;;;;;;;10269731;28;20077;-56
2022/03/03 11:22:34;;;;;;;17.63;13.25;;;;;;;;;;10276862;28;20075;-56
2022/03/03 11:27:34;;;;;;;20.23;14.77;;;;;;;;;;10267282;28;20079;-58
2022/03/03 11:32:32;;;;;;;41.83;28.75;;;;;;;;;;10272894;28;20084;-57
2022/03/03 11:37:38;;;;;;;26.00;18.05;;;;;;;;;;10265357;28;20071;-56
2022/03/03 11:42:37;;;;;;;47.40;26.25;;;;;;;;;;10268603;28;20076;-56
2022/03/03 11:47:37;;;;;;;19.05;14.98;;;;;;;;;;10268571;28;20083;-56
2022/03/03 11:52:38;;;;;;;18.55;12.95;;;;;;;;;;10257842;28;20087;-56
2022/03/03 11:57:36;;;;;;;35.30;22.38;;;;;;;;;;10268305;28;20081;-57
2022/03/03 12:02:35;;;;;;;24.55;18.65;;;;;;;;;;10264116;28;20477;-56
2022/03/03 12:07:34;;;;;;;17.05;13.77;;;;;;;;;;10276845;28;20073;-58
2022/03/03 12:12:33;;;;;;;16.15;14.35;;;;;;;;;;10276490;28;20104;-55
2022/03/03 12:17:39;;;;;;;28.23;19.63;;;;;;;;;;10289544;28;20081;-58
2022/03/03 12:22:57;;;;;;;16.58;13.75;;;;;;;;;;10267547;28;20502;-56
2022/03/03 12:28:14;;;;;;;13.30;10.25;;;;;;;;;;10268773;28;20072;-55
2022/03/03 12:33:22;;;;;;;14.77;11.68;;;;;;;;;;10273181;28;20064;-56
2022/03/03 12:38:20;;;;;;;20.55;13.85;;;;;;;;;;10274181;28;20080;-56
2022/03/03 12:43:19;;;;;;;15.05;11.55;;;;;;;;;;10274397;28;20064;-57
2022/03/03 12:48:29;;;;;;;16.67;12.88;;;;;;;;;;10273995;28;20067;-55
2022/03/03 12:53:33;;;;;;;13.10;9.38;;;;;;;;;;10268522;28;20076;-52
2022/03/03 12:58:32;;;;;;;18.52;11.13;;;;;;;;;;10267914;28;20048;-56
2022/03/03 13:03:37;;;;;;;13.65;11.70;;;;;;;;;;10273517;28;20065;-58
2022/03/03 13:08:36;;;;;;;16.70;12.17;;;;;;;;;;10274059;28;20077;-56
2022/03/03 13:13:44;;;;;;;26.23;16.90;;;;;;;;;;10273739;28;20339;-57
2022/03/03 13:18:44;;;;;;;23.65;17.52;;;;;;;;;;10273761;28;20466;-58
2022/03/03 13:23:43;;;;;;;21.90;14.50;;;;;;;;;;10272637;28;20068;-55
2022/03/03 13:28:43;;;;;;;27.27;18.15;;;;;;;;;;10272943;28;20531;-54
2022/03/03 13:33:42;;;;;;;15.63;12.95;;;;;;;;;;10272478;28;20073;-54
2022/03/03 13:38:41;;;;;;;32.22;25.33;;;;;;;;;;10272410;28;20481;-54
2022/03/03 13:43:40;;;;;;;23.27;16.45;;;;;;;;;;10277230;28;20494;-55
2022/03/03 13:48:38;;;;;;;16.80;11.32;;;;;;;;;;10276658;28;20079;-56
2022/03/03 13:53:36;;;;;;;15.45;11.40;;;;;;;;;;10271702;28;20084;-56
2022/03/03 13:58:36;;;;;;;26.27;17.98;;;;;;;;;;10271632;28;20069;-56
2022/03/03 14:03:35;;;;;;;21.45;14.35;;;;;;;;;;10270545;28;20492;-56
2022/03/03 14:08:41;;;;;;;27.33;18.42;;;;;;;;;;10272296;28;20073;-56
2022/03/03 14:13:51;;;;;;;16.80;14.15;;;;;;;;;;10276064;28;20459;-54
2022/03/03 14:18:50;;;;;;;29.77;22.00;;;;;;;;;;10276202;28;20080;-56
2022/03/03 14:23:48;;;;;;;14.20;11.38;;;;;;;;;;10275434;28;20040;-57
2022/03/03 14:28:56;;;;;;;22.30;13.85;;;;;;;;;;10271094;28;20064;-56
2022/03/03 14:33:56;;;;;;;40.78;27.50;;;;;;;;;;10271200;28;20524;-57
2022/03/03 14:39:11;;;;;;;49.55;30.25;;;;;;;;;;10270621;28;20061;-56
2022/03/03 14:44:11;;;;;;;32.17;22.13;;;;;;;;;;10270323;28;20466;-56
2022/03/03 14:49:13;;;;;;;24.33;17.75;;;;;;;;;;10271023;28;20078;-55
2022/03/03 14:54:11;;;;;;;19.95;13.88;;;;;;;;;;10268894;28;20057;-53
2022/03/03 14:59:12;;;;;;;81.38;52.17;;;;;;;;;;10273059;28;20064;-55
2022/03/03 15:04:14;;;;;;;44.22;31.73;;;;;;;;;;10268787;28;20079;-57
2022/03/03 15:09:14;;;;;;;52.88;37.88;;;;;;;;;;10268370;28;20097;-55
2022/03/03 15:14:13;;;;;;;57.05;36.83;;;;;;;;;;10266663;28;20064;-57
2022/03/03 15:19:12;;;;;;;111.72;77.50;;;;;;;;;;10267039;28;20742;-54
2022/03/03 15:24:11;;;;;;;52.90;38.42;;;;;;;;;;10266548;28;20073;-56
2022/03/03 15:29:09;;;;;;;59.85;43.22;;;;;;;;;;10266272;28;20069;-55
2022/03/03 15:39:25;;;;;;;151.52;89.80;;;;;;;;;;10267228;28;20295;-56
2022/03/03 15:44:24;;;;;;;169.05;95.10;;;;;;;;;;10271811;28;20076;-57
2022/03/03 15:49:25;;;;;;;157.27;100.85;;;;;;;;;;10271697;28;20076;-56
2022/03/03 15:54:24;;;;;;;60.22;44.80;;;;;;;;;;10227318;28;1182340;-56
2022/03/03 15:59:23;;;;;;;52.45;37.65;;;;;;;;;;10273478;28;20080;-53
2022/03/03 16:04:21;;;;;;;71.40;48.30;;;;;;;;;;10273828;28;20052;-56
2022/03/03 16:09:21;;;;;;;32.15;23.20;;;;;;;;;;10267917;28;20088;-54
2022/03/03 16:14:21;;;;;;;46.30;33.00;;;;;;;;;;10262314;28;20069;-54
2022/03/03 16:19:20;;;;;;;54.00;36.20;;;;;;;;;;10268081;28;20072;-54
2022/03/03 16:24:18;;;;;;;66.78;46.03;;;;;;;;;;10267991;28;20065;-57
2022/03/03 16:29:33;;;;;;;42.85;33.55;;;;;;;;;;10263226;28;20076;-57
2022/03/03 16:34:31;;;;;;;31.75;24.25;;;;;;;;;;10267172;28;20084;-56
2022/03/03 16:39:29;;;;;;;22.67;19.10;;;;;;;;;;10267914;28;20072;-55
2022/03/03 16:44:28;;;;;;;36.60;26.85;;;;;;;;;;10267398;28;20072;-54
2022/03/03 16:49:27;;;;;;;29.75;26.00;;;;;;;;;;10274380;28;20088;-57
2022/03/03 16:54:26;;;;;;;23.27;17.67;;;;;;;;;;10275615;28;20096;-55
2022/03/03 16:59:24;;;;;;;30.77;22.90;;;;;;;;;;10274427;28;20080;-56
2022/03/03 17:04:23;;;;;;;19.60;15.85;;;;;;;;;;10274596;28;20072;-55
2022/03/03 17:09:23;;;;;;;39.22;27.58;;;;;;;;;;10268251;28;20087;-55
2022/03/03 17:14:21;;;;;;;107.68;65.18;;;;;;;;;;10273423;28;20068;-55
2022/03/03 17:19:19;;;;;;;47.85;34.00;;;;;;;;;;10273065;28;20079;-55
2022/03/03 17:24:22;;;;;;;34.25;26.02;;;;;;;;;;10267102;28;20461;-54
2022/03/03 17:29:22;;;;;;;23.75;18.80;;;;;;;;;;10272898;28;20076;-55
2022/03/03 17:34:20;;;;;;;23.60;17.15;;;;;;;;;;10271723;28;20064;-56
2022/03/03 17:39:19;;;;;;;18.92;14.63;;;;;;;;;;10272979;28;20088;-55
2022/03/03 17:44:19;;;;;;;41.30;25.73;;;;;;;;;;10266346;28;20075;-55
2022/03/03 17:49:18;;;;;;;70.63;40.30;;;;;;;;;;10266410;28;20075;-55
2022/03/03 17:54:17;;;;;;;26.10;19.67;;;;;;;;;;10270898;28;20076;-56
2022/03/03 17:59:16;;;;;;;23.65;17.65;;;;;;;;;;10275714;28;20083;-56
2022/03/03 18:04:14;;;;;;;26.58;19.45;;;;;;;;;;10269877;28;20064;-54
2022/03/03 18:09:14;;;;;;;28.48;19.08;;;;;;;;;;10269151;28;20072;-58
2022/03/03 18:14:13;;;;;;;57.92;32.70;;;;;;;;;;10271124;28;20505;-56
2022/03/03 18:19:11;;;;;;;171.30;87.88;;;;;;;;;;10255401;28;20085;-56
2022/03/03 18:24:09;;;;;;;200.13;98.15;;;;;;;;;;10274016;28;20080;-56
2022/03/03 18:29:09;;;;;;;140.75;74.35;;;;;;;;;;10270487;28;20116;-54
2022/03/03 18:34:07;;;;;;;94.50;51.03;;;;;;;;;;10269250;28;20501;-57
2022/03/03 18:39:06;;;;;;;120.93;66.50;;;;;;;;;;10270151;28;20540;-53
2022/03/03 18:44:05;;;;;;;127.20;69.60;;;;;;;;;;10266069;28;20503;-54
2022/03/03 18:49:05;;;;;;;83.82;47.60;;;;;;;;;;10270585;28;20075;-56
2022/03/03 18:54:03;;;;;;;67.05;42.58;;;;;;;;;;10267376;28;20076;-55
2022/03/03 18:59:03;;;;;;;89.78;50.38;;;;;;;;;;10264349;28;20071;-54
2022/03/03 19:04:03;;;;;;;110.13;56.70;;;;;;;;;;10243169;28;20140;-53
2022/03/03 19:09:03;;;;;;;139.73;72.25;;;;;;;;;;10251213;28;20071;-56
2022/03/03 19:14:02;;;;;;;133.07;70.30;;;;;;;;;;10257908;28;20076;-54
2022/03/03 19:19:00;;;;;;;147.05;78.18;;;;;;;;;;10255493;28;20061;-54
2022/03/03 19:23:58;;;;;;;117.93;64.80;;;;;;;;;;10262198;28;20485;-53
2022/03/03 19:28:57;;;;;;;184.82;97.57;;;;;;;;;;10264024;28;20073;-54
2022/03/03 19:34:14;;;;;;;130.38;68.45;;;;;;;;;;10260534;28;20080;-54
2022/03/03 19:39:12;;;;;;;113.82;59.40;;;;;;;;;;10264094;28;20508;-54
2022/03/03 19:44:12;;;;;;;129.00;67.70;;;;;;;;;;10249184;28;20069;-53
2022/03/03 19:49:10;;;;;;;110.07;58.17;;;;;;;;;;10245303;28;20069;-51
2022/03/03 19:54:09;;;;;;;44.63;25.38;;;;;;;;;;10257105;28;20498;-55
2022/03/03 19:59:07;;;;;;;107.85;56.95;;;;;;;;;;10251885;28;20486;-53
2022/03/03 20:04:07;;;;;;;93.10;51.67;;;;;;;;;;10252645;28;20057;-54
2022/03/03 20:14:21;;;;;;;45.25;27.98;;;;;;;;;;10252682;28;20099;-54
2022/03/03 20:19:21;;;;;;;54.38;32.97;;;;;;;;;;10251490;28;20080;-55
2022/03/03 20:24:19;;;;;;;55.28;31.30;;;;;;;;;;10258852;28;20084;-55
2022/03/03 20:29:17;;;;;;;96.78;55.00;;;;;;;;;;10266793;28;20067;-54
2022/03/03 20:34:15;;;;;;;77.18;40.80;;;;;;;;;;10253483;28;20069;-54
2022/03/03 20:39:15;;;;;;;110.05;59.33;;;;;;;;;;10268174;28;20068;-54
2022/03/03 20:44:14;;;;;;;64.57;38.97;;;;;;;;;;10251308;28;20075;-52
2022/03/03 20:49:12;;;;;;;62.22;39.20;;;;;;;;;;10266586;28;20057;-55
2022/03/03 20:54:12;;;;;;;64.85;40.55;;;;;;;;;;10274350;28;20314;-52
2022/03/03 20:59:12;;;;;;;56.92;36.83;;;;;;;;;;10272433;28;20076;-55
2022/03/03 21:04:10;;;;;;;45.08;28.70;;;;;;;;;;10274656;28;20470;-55
2022/03/03 21:09:09;;;;;;;80.15;46.47;;;;;;;;;;10274078;28;20084;-54
2022/03/03 21:14:07;;;;;;;72.75;41.38;;;;;;;;;;10274171;28;20079;-55
2022/03/03 21:19:07;;;;;;;65.32;37.45;;;;;;;;;;10273669;28;20079;-55
2022/03/03 21:24:05;;;;;;;59.88;34.08;;;;;;;;;;10266952;28;21336;-54
2022/03/03 21:29:05;;;;;;;56.75;34.75;;;;;;;;;;10269668;28;20080;-56
2022/03/03 21:34:03;;;;;;;70.07;39.20;;;;;;;;;;10276161;28;20049;-54
2022/03/03 21:39:03;;;;;;;50.05;29.83;;;;;;;;;;10271785;28;20293;-55
2022/03/03 21:44:02;;;;;;;63.63;34.38;;;;;;;;;;10287967;28;20541;-55
2022/03/03 21:49:00;;;;;;;93.70;49.10;;;;;;;;;;10273070;28;20068;-53
2022/03/03 21:53:58;;;;;;;61.40;35.53;;;;;;;;;;10262253;28;20079;-55
2022/03/03 21:58:58;;;;;;;50.40;31.95;;;;;;;;;;10275549;28;20083;-55
2022/03/03 22:03:57;;;;;;;56.95;35.35;;;;;;;;;;10294193;28;20110;-56
2022/03/03 22:08:55;;;;;;;62.45;35.00;;;;;;;;;;10288367;28;20081;-53
2022/03/03 22:13:54;;;;;;;48.28;29.45;;;;;;;;;;10271344;28;20091;-52
2022/03/03 22:18:54;;;;;;;29.10;18.98;;;;;;;;;;10271498;28;20068;-54
2022/03/03 22:23:52;;;;;;;23.27;18.08;;;;;;;;;;10271632;28;20069;-53
2022/03/03 22:28:50;;;;;;;29.35;20.92;;;;;;;;;;10271304;28;20084;-54
2022/03/03 22:33:49;;;;;;;35.90;26.30;;;;;;;;;;10269984;28;20127;-55
2022/03/03 22:38:48;;;;;;;29.00;20.10;;;;;;;;;;10270414;28;20088;-55
2022/03/03 22:43:46;;;;;;;24.25;16.23;;;;;;;;;;10270843;28;20170;-55
2022/03/03 22:48:45;;;;;;;20.98;16.63;;;;;;;;;;10269708;28;20064;-55
2022/03/03 22:53:44;;;;;;;17.63;12.98;;;;;;;;;;10270824;28;20087;-54
2022/03/03 22:58:44;;;;;;;17.30;13.18;;;;;;;;;;10256620;28;20076;-53
2022/03/03 23:08:59;;;;;;;21.92;15.30;;;;;;;;;;10262223;28;20078;-55
2022/03/03 23:13:59;;;;;;;16.30;13.63;;;;;;;;;;10265712;28;20462;-54
2022/03/03 23:18:57;;;;;;;20.65;12.93;;;;;;;;;;10259956;28;20083;-54
2022/03/03 23:23:56;;;;;;;16.23;13.45;;;;;;;;;;10264625;28;20065;-54
2022/03/03 23:29:01;;;;;;;32.88;20.48;;;;;;;;;;10266840;28;20596;-52
2022/03/03 23:34:00;;;;;;;20.50;14.30;;;;;;;;;;10266433;28;20091;-55
2022/03/03 23:38:59;;;;;;;16.40;12.90;;;;;;;;;;10265463;28;20069;-55
2022/03/03 23:43:57;;;;;;;18.63;13.40;;;;;;;;;;10272738;28;20072;-54
2022/03/03 23:48:57;;;;;;;21.38;13.82;;;;;;;;;;10272937;28;20053;-50
2022/03/03 23:53:55;;;;;;;22.60;15.55;;;;;;;;;;10273317;28;20490;-53
2022/03/03 23:58:54;;;;;;;28.38;16.90;;;;;;;;;;10271212;28;20077;-55
